• Join FlightAware (Why Join?)
  • Login
  • US Flag 
08:48AM EDT


 

Airport Tracker/Info


-or-


 

Live Flight TrackerFlight Track Log ✈ CCA4386 ✈ 30-Jun-2013 ✈ ZGKL / KWL - ZUCK / CKG

Flight Track Log - Related Links

Times and Time Zones

All times are in EDT time to prevent confusion due to time zone crossing. See the CCA4386 flight status page for this flight to view local times or setup timezone preferences in your user account.

Time Position Orientation Groundspeed Altitude Reporting Facility
EDT Latitude Longitude Course Direction KTS MPH feet Rate Location/Type
03:27AM 27.2600 108.5396 327° Northwest  Level Estimated
03:28AM 27.3484 108.4732 326° Northwest  Level Estimated
03:29AM 27.4368 108.4067 326° Northwest  Level Estimated
03:30AM 27.5252 108.3400 326° Northwest  Level Estimated
03:31AM 27.6135 108.2733 326° Northwest  Level Estimated
03:32AM 27.7018 108.2064 326° Northwest  Level Estimated
03:33AM 27.7901 108.1395 326° Northwest  Level Estimated
03:34AM 27.8783 108.0724 326° Northwest  Level Estimated
03:35AM 27.9665 108.0052 326° Northwest  Level Estimated
03:36AM 28.0546 107.9380 326° Northwest  Level Estimated
03:37AM 28.1428 107.8706 326° Northwest  Level Estimated
03:38AM 28.2309 107.8031 326° Northwest  Level Estimated
03:39AM 28.3189 107.7354 326° Northwest  Level Estimated
03:40AM 28.4069 107.6677 326° Northwest  Level Estimated
03:41AM 28.4949 107.5999 326° Northwest  Level Estimated
03:42AM 28.5829 107.5319 326° Northwest  Level Estimated
03:43AM 28.6708 107.4638 326° Northwest  Level Estimated
03:44AM 28.7587 107.3957 326° Northwest  Level Estimated
03:45AM 28.8466 107.3274 326° Northwest  Level Estimated
03:46AM 28.9344 107.2589 326° Northwest  Level Estimated
03:47AM 29.0222 107.1904 326° Northwest  Level Estimated
03:48AM 29.1099 107.1218 326° Northwest  Level Estimated
03:49AM 29.1977 107.0530 326° Northwest  Level Estimated
03:50AM 29.2854 106.9841 326° Northwest  Level Estimated
03:51AM 29.3730 106.9151 326° Northwest  Level Estimated
03:52AM 29.4606 106.8460 326° Northwest  Level Estimated
03:53AM 29.5482 106.7768 325° Northwest  Level Estimated
03:54AM 29.6357 106.7074 325° Northwest  Level Estimated
03:55AM 29.7194 106.6410 325° Northwest  Level Estimated
03:55AM 29.5870 106.5920 60° Northeast 214 246 4,500  Level FlightAware
03:56AM 29.7194 106.6410 60° Northeast  Level Estimated
03:56AM 29.6000 106.6050 41° Northeast 201 231 3,800  Level FlightAware
03:56AM 29.6270 106.6140 16° North 177 204 3,300 -900 Descending FlightAware
03:56AM 29.6350 106.6170 18° North 163 188 3,200 -720 Descending FlightAware
03:57AM 29.6530 106.6230 16° North 154 177 2,800 -420 Descending FlightAware
03:57AM 29.6700 106.6290 17° North 154 177 2,800 -780 Level FlightAware
03:58AM 29.6930 106.6370 17° North 149 171 2,100 -780 Descending FlightAware
03:58AM 29.7090 106.6420 15° North 149 171 2,100  Level FlightAware